createdAt,value
2023-05-15T00:02:17.494Z,35.97
2023-05-15T00:04:44.403Z,36.18
2023-05-15T00:07:11.708Z,35.91
2023-05-15T00:09:39.005Z,36.06
2023-05-15T00:12:06.348Z,35.74
2023-05-15T00:14:33.054Z,35.60
2023-05-15T00:17:00.140Z,35.97
2023-05-15T00:19:26.852Z,35.92
2023-05-15T00:21:54.049Z,35.62
2023-05-15T00:24:21.547Z,35.75
2023-05-15T00:26:48.535Z,35.84
2023-05-15T00:29:15.315Z,35.58
2023-05-15T00:31:42.436Z,35.80
2023-05-15T00:34:09.226Z,35.42
2023-05-15T00:36:36.221Z,35.39
2023-05-15T00:39:02.999Z,35.96
2023-05-15T00:41:32.123Z,35.93
2023-05-15T00:44:00.699Z,35.63
2023-05-15T00:46:28.354Z,35.49
2023-05-15T00:48:55.102Z,35.89
2023-05-15T00:51:22.186Z,35.70
2023-05-15T00:53:50.700Z,35.77
2023-05-15T00:56:17.888Z,35.90
2023-05-15T00:58:45.989Z,35.95
2023-05-15T01:01:19.523Z,35.74
2023-05-15T01:03:46.291Z,35.54
2023-05-15T01:06:13.646Z,35.63
2023-05-15T01:08:42.869Z,35.54
2023-05-15T01:11:10.596Z,35.90
2023-05-15T01:13:37.297Z,35.82
2023-05-15T01:16:04.738Z,35.92
2023-05-15T01:18:34.211Z,35.80
2023-05-15T01:21:01.620Z,35.62
2023-05-15T01:23:47.127Z,35.76
2023-05-15T01:26:21.806Z,35.80
2023-05-15T01:28:51.472Z,36.07
2023-05-15T01:31:19.553Z,35.61
2023-05-15T01:33:47.465Z,35.62
2023-05-15T01:36:36.478Z,35.73
2023-05-15T01:39:03.557Z,35.83
2023-05-15T01:41:48.617Z,35.46
2023-05-15T01:44:19.947Z,35.84
2023-05-15T01:46:50.379Z,35.63
2023-05-15T01:49:18.937Z,35.55
2023-05-15T01:51:49.596Z,35.57
2023-05-15T01:54:16.327Z,35.56
2023-05-15T01:56:45.234Z,35.52
2023-05-15T01:59:12.978Z,35.81
2023-05-15T02:01:40.078Z,35.75
2023-05-15T02:04:06.921Z,35.37
2023-05-15T02:06:34.052Z,35.48
2023-05-15T02:09:01.455Z,35.52
2023-05-15T02:11:28.497Z,35.53
2023-05-15T02:13:56.202Z,35.54
2023-05-15T02:16:23.261Z,35.48
2023-05-15T02:18:50.011Z,35.72
2023-05-15T02:21:17.067Z,35.41
2023-05-15T02:23:43.771Z,35.21
2023-05-15T02:26:48.267Z,35.56
2023-05-15T02:30:05.729Z,35.59
2023-05-15T02:32:41.705Z,35.43
2023-05-15T02:35:27.477Z,35.36
2023-05-15T02:37:55.458Z,35.63
2023-05-15T02:40:24.157Z,35.57
2023-05-15T02:42:52.417Z,35.55
2023-05-15T02:45:19.676Z,35.43
2023-05-15T02:47:48.546Z,35.32
2023-05-15T02:50:15.300Z,35.25
2023-05-15T02:52:42.331Z,35.32
2023-05-15T02:55:09.585Z,35.42
2023-05-15T02:57:36.594Z,35.53
2023-05-15T03:00:07.363Z,35.56
2023-05-15T03:02:34.482Z,36.04
2023-05-15T03:05:01.238Z,36.28
2023-05-15T03:07:28.288Z,36.25
2023-05-15T03:09:55.023Z,35.53
2023-05-15T03:12:21.996Z,35.77
2023-05-15T03:14:48.671Z,36.04
2023-05-15T03:17:16.037Z,36.50
2023-05-15T03:19:42.993Z,36.75
2023-05-15T03:22:09.999Z,36.85
2023-05-15T03:24:36.741Z,36.85
2023-05-15T03:27:04.880Z,37.43
2023-05-15T03:29:31.668Z,37.36
2023-05-15T03:31:58.707Z,37.73
2023-05-15T03:34:25.546Z,37.56
2023-05-15T03:36:52.642Z,37.94
2023-05-15T03:39:19.340Z,38.41
2023-05-15T03:41:46.715Z,38.04
2023-05-15T03:44:13.428Z,37.99
2023-05-15T03:46:40.476Z,37.77
2023-05-15T03:49:07.205Z,38.59
2023-05-15T03:51:34.676Z,38.29
2023-05-15T03:54:01.485Z,37.94
2023-05-15T03:56:28.516Z,38.55
2023-05-15T03:58:55.193Z,38.18
2023-05-15T04:01:22.211Z,38.04
2023-05-15T04:03:48.876Z,38.78
2023-05-15T04:06:15.913Z,38.65
2023-05-15T04:08:42.665Z,38.80
2023-05-15T04:11:10.539Z,38.67
2023-05-15T04:13:37.241Z,38.67
2023-05-15T04:16:04.566Z,38.31
2023-05-15T04:18:31.410Z,37.85
2023-05-15T04:20:58.543Z,38.40
2023-05-15T04:23:25.782Z,38.43
2023-05-15T04:25:53.773Z,38.05
2023-05-15T04:28:23.093Z,37.53
2023-05-15T04:30:50.690Z,37.96
2023-05-15T04:33:17.419Z,37.81
2023-05-15T04:35:44.412Z,37.57
2023-05-15T04:38:11.206Z,37.80
2023-05-15T04:40:38.230Z,38.38
2023-05-15T04:43:05.251Z,37.59
2023-05-15T04:45:32.296Z,37.62
2023-05-15T04:47:59.065Z,38.23
2023-05-15T04:50:26.362Z,37.88
2023-05-15T04:52:53.283Z,38.26
2023-05-15T04:55:20.524Z,38.29
2023-05-15T04:57:47.205Z,38.72
2023-05-15T05:00:14.955Z,38.46
2023-05-15T05:02:43.507Z,37.50
2023-05-15T05:05:10.574Z,37.47
2023-05-15T05:07:37.367Z,37.65
2023-05-15T05:10:05.541Z,37.40
2023-05-15T05:12:32.232Z,37.49
2023-05-15T05:14:59.248Z,37.98
2023-05-15T05:17:26.399Z,37.41
2023-05-15T05:19:53.421Z,37.89
2023-05-15T05:22:20.117Z,37.66
2023-05-15T05:24:47.125Z,37.95
2023-05-15T05:27:13.825Z,37.52
2023-05-15T05:29:40.942Z,37.48
2023-05-15T05:32:08.660Z,37.30
2023-05-15T05:34:35.792Z,37.33
2023-05-15T05:37:02.542Z,37.14
2023-05-15T05:39:29.565Z,37.35
2023-05-15T05:41:56.284Z,37.93
2023-05-15T05:44:23.380Z,37.85
2023-05-15T05:46:50.105Z,37.58
2023-05-15T05:49:17.233Z,37.65
2023-05-15T05:51:45.776Z,37.63
2023-05-15T05:54:14.956Z,38.36
2023-05-15T05:56:42.473Z,38.22
2023-05-15T05:59:10.432Z,38.09
2023-05-15T06:01:37.310Z,38.37
2023-05-15T06:04:04.714Z,38.29
2023-05-15T06:06:31.557Z,38.58
2023-05-15T06:09:00.116Z,38.12
2023-05-15T06:11:27.179Z,37.75
2023-05-15T06:13:54.196Z,38.25
2023-05-15T06:16:21.433Z,38.31
2023-05-15T06:18:48.509Z,37.98
2023-05-15T06:21:15.315Z,38.20
2023-05-15T06:23:42.460Z,38.11
2023-05-15T06:26:09.175Z,37.95
2023-05-15T06:28:36.270Z,37.88
2023-05-15T06:31:03.262Z,37.88
2023-05-15T06:33:30.516Z,38.18
2023-05-15T06:35:57.344Z,37.85
2023-05-15T06:38:24.387Z,37.76
2023-05-15T06:40:51.086Z,38.08
2023-05-15T06:43:18.137Z,37.61
2023-05-15T06:45:44.881Z,37.85
2023-05-15T06:48:12.004Z,38.04
2023-05-15T06:50:38.745Z,38.04
2023-05-15T06:53:05.885Z,37.73
2023-05-15T06:55:34.177Z,37.84
2023-05-15T06:58:01.215Z,37.93
2023-05-15T07:00:28.001Z,38.06
2023-05-15T07:02:55.060Z,37.90
2023-05-15T07:05:22.127Z,37.89
2023-05-15T07:07:49.140Z,37.78
2023-05-15T07:10:16.013Z,38.11
2023-05-15T07:12:43.038Z,37.62
2023-05-15T07:15:10.320Z,37.59
2023-05-15T07:17:37.501Z,37.55
2023-05-15T07:20:06.130Z,37.83
2023-05-15T07:22:36.390Z,38.27
2023-05-15T07:25:08.775Z,37.82
2023-05-15T07:27:36.016Z,38.19
2023-05-15T07:30:04.159Z,38.32
2023-05-15T07:32:31.249Z,38.01
2023-05-15T07:34:58.046Z,38.44
2023-05-15T07:37:25.683Z,38.42
2023-05-15T07:39:52.643Z,38.69
2023-05-15T07:42:19.727Z,38.34
2023-05-15T07:44:48.762Z,38.37
2023-05-15T07:47:17.318Z,38.27
2023-05-15T07:49:44.126Z,38.12
2023-05-15T07:52:11.181Z,38.51
2023-05-15T07:54:39.601Z,38.79
2023-05-15T07:57:06.656Z,38.97
2023-05-15T07:59:33.456Z,38.73
2023-05-15T08:02:00.761Z,38.70
2023-05-15T08:04:27.643Z,38.87
2023-05-15T08:06:54.698Z,39.00
2023-05-15T08:09:21.442Z,39.34
2023-05-15T08:11:48.498Z,39.24
2023-05-15T08:14:15.257Z,39.04
2023-05-15T08:16:42.459Z,39.03
2023-05-15T08:19:10.368Z,39.37
2023-05-15T08:21:37.565Z,39.72
2023-05-15T08:24:04.578Z,39.75
2023-05-15T08:26:31.703Z,39.93
2023-05-15T08:28:58.452Z,39.92
2023-05-15T08:31:25.697Z,40.17
2023-05-15T08:33:52.415Z,40.00
2023-05-15T08:36:19.957Z,39.66
2023-05-15T08:38:46.925Z,39.53
2023-05-15T08:41:38.711Z,39.88
2023-05-15T08:44:07.019Z,39.88
2023-05-15T08:46:34.897Z,39.85
2023-05-15T08:49:03.595Z,40.46
2023-05-15T08:51:30.952Z,39.70
2023-05-15T08:53:57.662Z,39.90
2023-05-15T08:56:24.812Z,39.99
2023-05-15T08:58:51.639Z,39.87
2023-05-15T09:01:18.694Z,40.12
2023-05-15T09:03:45.466Z,39.63
2023-05-15T09:06:12.516Z,40.47
2023-05-15T09:08:39.286Z,39.79
2023-05-15T09:11:07.931Z,39.89
2023-05-15T09:13:34.727Z,40.20
2023-05-15T09:16:01.748Z,40.35
2023-05-15T09:18:28.555Z,40.24
2023-05-15T09:20:56.326Z,40.50
2023-05-15T09:23:27.394Z,40.36
2023-05-15T09:25:56.747Z,40.35
2023-05-15T09:28:31.030Z,40.29
2023-05-15T09:31:02.290Z,40.57
2023-05-15T09:33:33.335Z,40.58
2023-05-15T09:36:01.186Z,40.92
2023-05-15T09:38:27.996Z,41.02
2023-05-15T09:41:06.416Z,40.97
2023-05-15T09:47:14.721Z,40.87
2023-05-15T09:49:44.302Z,40.85
2023-05-15T09:52:11.424Z,42.06
2023-05-15T09:54:38.270Z,41.93
2023-05-15T09:57:09.812Z,41.25
2023-05-15T09:59:36.658Z,41.89
2023-05-15T10:02:03.867Z,41.80
2023-05-15T10:04:35.738Z,41.82
2023-05-15T10:07:02.816Z,41.97
2023-05-15T10:09:32.818Z,41.59
2023-05-15T10:11:59.916Z,42.00
2023-05-15T10:14:26.788Z,42.07
2023-05-15T10:16:53.844Z,42.03
2023-05-15T10:19:20.817Z,41.95
2023-05-15T10:21:48.001Z,42.35
2023-05-15T10:24:14.904Z,42.98
2023-05-15T10:26:42.678Z,42.79
2023-05-15T10:29:10.898Z,42.46
2023-05-15T10:31:38.235Z,41.90
2023-05-15T10:34:05.502Z,42.88
2023-05-15T10:36:33.252Z,42.70
2023-05-15T10:39:00.376Z,42.72
2023-05-15T10:41:30.956Z,42.77
2023-05-15T10:43:59.037Z,42.63
2023-05-15T10:46:26.834Z,42.56
2023-05-15T10:48:53.756Z,42.69
2023-05-15T10:51:28.477Z,42.37
2023-05-15T10:53:56.045Z,42.42
2023-05-15T10:56:41.349Z,42.19
2023-05-15T10:59:09.781Z,42.98
2023-05-15T11:01:38.105Z,42.35
2023-05-15T11:04:18.467Z,42.94
2023-05-15T11:06:46.729Z,43.08
2023-05-15T11:09:22.840Z,43.01
2023-05-15T11:11:53.074Z,43.76
2023-05-15T11:14:20.144Z,43.14
2023-05-15T11:16:53.555Z,43.85
2023-05-15T11:19:24.471Z,43.35
2023-05-15T11:22:00.436Z,43.09
2023-05-15T11:24:29.077Z,42.53
2023-05-15T11:27:05.288Z,42.80
2023-05-15T11:29:32.044Z,43.52
2023-05-15T11:31:59.711Z,43.08
2023-05-15T11:34:33.512Z,42.96
2023-05-15T11:37:04.250Z,42.87
2023-05-15T11:39:31.118Z,42.39
2023-05-15T11:41:59.298Z,42.39
2023-05-15T11:44:27.709Z,42.15
2023-05-15T11:46:54.821Z,42.61
2023-05-15T11:49:21.701Z,41.82
2023-05-15T11:51:49.026Z,42.18
2023-05-15T11:54:16.347Z,41.67
2023-05-15T11:56:46.719Z,41.81
2023-05-15T11:59:15.009Z,41.88
2023-05-15T12:01:42.718Z,41.45
2023-05-15T12:04:14.154Z,41.75
2023-05-15T12:06:41.493Z,41.00
2023-05-15T12:09:16.876Z,41.11
2023-05-15T12:12:03.739Z,40.87
2023-05-15T12:14:30.912Z,40.66
2023-05-15T12:17:04.554Z,40.63
2023-05-15T12:19:31.890Z,41.66
2023-05-15T12:21:58.967Z,41.00
2023-05-15T12:24:26.642Z,41.33
2023-05-15T12:26:55.343Z,41.33
2023-05-15T12:29:23.427Z,41.66
2023-05-15T12:31:54.002Z,41.54
2023-05-15T12:34:21.666Z,41.07
2023-05-15T12:36:48.712Z,41.15
2023-05-15T12:39:15.617Z,41.76
2023-05-15T12:41:42.656Z,41.47
2023-05-15T12:44:19.012Z,41.41
2023-05-15T12:46:46.958Z,41.51
2023-05-15T12:49:13.772Z,41.00
2023-05-15T12:51:43.925Z,40.99
2023-05-15T12:54:18.333Z,40.82
2023-05-15T12:56:45.705Z,40.71
2023-05-15T12:59:12.524Z,40.48
2023-05-15T13:01:42.222Z,40.73
2023-05-15T13:04:09.512Z,41.04
2023-05-15T13:06:46.621Z,40.61
2023-05-15T13:09:13.938Z,40.60
2023-05-15T13:11:45.023Z,40.97
2023-05-15T13:14:17.264Z,40.76
2023-05-15T13:16:46.380Z,40.74
2023-05-15T13:19:13.871Z,40.74
2023-05-15T13:21:41.237Z,40.44
2023-05-15T13:24:10.030Z,40.62
2023-05-15T13:26:37.322Z,40.19
2023-05-15T13:29:04.163Z,40.00
2023-05-15T13:31:32.208Z,40.02
2023-05-15T13:33:59.192Z,39.86
2023-05-15T13:36:26.270Z,40.40
2023-05-15T13:38:53.088Z,40.01
2023-05-15T13:41:20.162Z,39.87
2023-05-15T13:43:49.280Z,39.88
2023-05-15T13:46:16.681Z,40.13
2023-05-15T13:48:43.599Z,40.23
2023-05-15T13:51:10.716Z,39.60
2023-05-15T13:53:37.485Z,39.72
2023-05-15T13:56:04.961Z,40.22
2023-05-15T13:58:31.806Z,40.03
2023-05-15T14:00:58.981Z,40.23
2023-05-15T14:03:26.016Z,40.31
2023-05-15T14:05:53.884Z,40.25
2023-05-15T14:08:21.188Z,40.25
2023-05-15T14:10:48.259Z,40.56
2023-05-15T14:13:15.062Z,41.47
2023-05-15T14:15:42.134Z,40.88
2023-05-15T14:18:08.942Z,41.17
2023-05-15T14:20:36.139Z,41.22
2023-05-15T14:23:02.830Z,41.21
2023-05-15T14:25:29.976Z,41.51
2023-05-15T14:27:56.746Z,41.49
2023-05-15T14:30:24.226Z,40.94
2023-05-15T14:32:52.721Z,41.22
2023-05-15T14:35:20.206Z,41.50
2023-05-15T14:37:47.025Z,40.91
2023-05-15T14:40:14.174Z,41.68
2023-05-15T14:42:41.067Z,41.44
2023-05-15T14:45:08.837Z,41.43
2023-05-15T14:47:35.805Z,41.48
2023-05-15T14:50:03.267Z,41.77
2023-05-15T14:52:30.181Z,41.58
2023-05-15T14:55:08.530Z,41.59
2023-05-15T14:57:37.921Z,41.37
2023-05-15T15:00:06.744Z,41.86
2023-05-15T15:02:34.002Z,41.41
2023-05-15T15:05:01.518Z,41.91
2023-05-15T15:07:29.177Z,41.96
2023-05-15T15:09:56.325Z,41.92
2023-05-15T15:12:23.227Z,41.47
2023-05-15T15:14:50.445Z,41.60
2023-05-15T15:17:17.312Z,42.02
2023-05-15T15:19:44.493Z,41.97
2023-05-15T15:22:11.245Z,41.75
2023-05-15T15:24:38.308Z,41.73
2023-05-15T15:27:05.337Z,41.45
2023-05-15T15:29:32.408Z,41.44
2023-05-15T15:31:59.247Z,41.25
2023-05-15T15:34:26.864Z,41.75
2023-05-15T15:36:53.598Z,41.47
2023-05-15T15:39:21.027Z,41.73
2023-05-15T15:41:47.885Z,42.12
2023-05-15T15:44:15.034Z,41.80
2023-05-15T15:46:41.839Z,42.16
2023-05-15T15:49:09.061Z,41.71
2023-05-15T15:51:35.868Z,42.34
2023-05-15T15:54:03.009Z,41.90
2023-05-15T15:56:29.795Z,42.05
2023-05-15T15:58:56.928Z,41.97
2023-05-15T16:01:23.819Z,41.94
2023-05-15T16:03:51.058Z,42.24
2023-05-15T16:06:17.846Z,42.47
2023-05-15T16:08:44.948Z,42.27
2023-05-15T16:11:11.790Z,42.47
2023-05-15T16:13:40.824Z,42.03
2023-05-15T16:16:07.967Z,42.19
2023-05-15T16:18:35.330Z,42.20
2023-05-15T16:21:02.211Z,42.26
2023-05-15T16:23:33.615Z,42.58
2023-05-15T16:26:00.587Z,42.32
2023-05-15T16:28:27.912Z,42.45
2023-05-15T16:30:54.894Z,42.24
2023-05-15T16:33:22.186Z,42.35
2023-05-15T16:35:49.016Z,42.61
2023-05-15T16:38:17.242Z,42.57
2023-05-15T16:40:44.289Z,42.61
2023-05-15T16:43:11.499Z,42.08
2023-05-15T16:45:38.910Z,42.44
2023-05-15T16:48:06.313Z,42.19
2023-05-15T16:50:35.465Z,42.52
2023-05-15T16:53:02.951Z,41.86
2023-05-15T16:55:29.791Z,42.22
2023-05-15T16:57:56.946Z,41.74
2023-05-15T17:00:23.888Z,42.11
2023-05-15T17:02:51.775Z,41.94
2023-05-15T17:05:18.612Z,41.69
2023-05-15T17:07:45.828Z,41.63
2023-05-15T17:10:13.250Z,41.76
2023-05-15T17:12:40.508Z,41.67
2023-05-15T17:15:07.749Z,41.76
2023-05-15T17:17:35.054Z,41.04
2023-05-15T17:20:02.975Z,41.18
2023-05-15T17:22:30.554Z,41.06
2023-05-15T17:24:57.536Z,41.21
2023-05-15T17:27:26.045Z,41.37
2023-05-15T17:29:52.946Z,41.61
2023-05-15T17:32:20.921Z,41.16
2023-05-15T17:34:47.840Z,41.21
2023-05-15T17:37:15.705Z,40.91
2023-05-15T17:39:42.750Z,41.00
2023-05-15T17:42:09.923Z,41.63
2023-05-15T17:44:38.031Z,41.49
2023-05-15T17:47:05.501Z,41.45
2023-05-15T17:49:34.280Z,41.41
2023-05-15T17:52:01.525Z,41.11
2023-05-15T17:54:28.440Z,41.55
2023-05-15T17:56:55.618Z,41.73
2023-05-15T17:59:23.172Z,41.54
2023-05-15T18:01:50.438Z,41.43
2023-05-15T18:04:17.449Z,41.78
2023-05-15T18:06:44.680Z,41.27
2023-05-15T18:09:11.871Z,41.29
2023-05-15T18:11:38.995Z,41.49
2023-05-15T18:14:06.503Z,41.41
2023-05-15T18:16:33.687Z,41.61
2023-05-15T18:19:00.742Z,40.73
2023-05-15T18:21:28.919Z,41.68
2023-05-15T18:23:55.825Z,40.91
2023-05-15T18:26:23.637Z,41.09
2023-05-15T18:28:50.601Z,40.68
2023-05-15T18:31:17.781Z,40.97
2023-05-15T18:33:45.066Z,41.55
2023-05-15T18:36:12.252Z,41.32
2023-05-15T18:38:39.147Z,40.82
2023-05-15T18:41:06.457Z,41.34
2023-05-15T18:43:33.308Z,41.26
2023-05-15T18:46:00.581Z,41.27
2023-05-15T18:48:27.517Z,41.05
2023-05-15T18:50:55.672Z,41.53
2023-05-15T18:53:22.497Z,41.59
2023-05-15T18:55:49.962Z,41.31
2023-05-15T18:58:16.822Z,41.47
2023-05-15T19:00:43.934Z,41.32
2023-05-15T19:03:12.184Z,41.38
2023-05-15T19:05:39.401Z,41.32
2023-05-15T19:08:07.198Z,41.41
2023-05-15T19:10:35.417Z,41.22
2023-05-15T19:13:02.304Z,40.88
2023-05-15T19:15:29.526Z,40.87
2023-05-15T19:17:56.343Z,41.01
2023-05-15T19:20:23.651Z,40.67
2023-05-15T19:22:51.661Z,40.94
2023-05-15T19:25:18.842Z,41.28
2023-05-15T19:27:46.645Z,41.08
2023-05-15T19:30:13.850Z,41.12
2023-05-15T19:32:41.082Z,41.41
2023-05-15T19:35:08.682Z,40.99
2023-05-15T19:37:37.433Z,40.87
2023-05-15T19:40:06.011Z,41.23
2023-05-15T19:42:32.959Z,40.85
2023-05-15T19:45:00.206Z,40.65
2023-05-15T19:47:27.509Z,40.85
2023-05-15T19:49:54.807Z,41.21
2023-05-15T19:52:21.638Z,40.70
2023-05-15T19:54:48.786Z,41.22
2023-05-15T19:57:15.900Z,41.13
2023-05-15T19:59:43.082Z,40.96
2023-05-15T20:02:11.539Z,41.37
2023-05-15T20:04:38.786Z,41.62
2023-05-15T20:07:05.726Z,41.89
2023-05-15T20:09:32.930Z,41.04
2023-05-15T20:11:59.846Z,42.10
2023-05-15T20:14:26.988Z,42.20
2023-05-15T20:16:53.856Z,41.99
2023-05-15T20:19:24.969Z,42.04
2023-05-15T20:21:51.933Z,41.92
2023-05-15T20:24:19.095Z,41.89
2023-05-15T20:26:45.959Z,42.71
2023-05-15T20:29:13.089Z,42.13
2023-05-15T20:31:40.453Z,42.04
2023-05-15T20:34:08.434Z,41.78
2023-05-15T20:36:39.036Z,42.40
2023-05-15T20:39:07.401Z,41.76
2023-05-15T20:41:34.528Z,41.88
2023-05-15T20:44:01.999Z,42.20
2023-05-15T20:46:30.414Z,41.71
2023-05-15T20:48:57.960Z,41.32
2023-05-15T20:51:25.126Z,41.60
2023-05-15T20:53:52.245Z,41.18
2023-05-15T20:56:19.081Z,41.68
2023-05-15T20:58:46.465Z,41.44
2023-05-15T21:01:13.515Z,41.43
2023-05-15T21:03:41.032Z,41.83
2023-05-15T21:06:08.442Z,41.27
2023-05-15T21:08:35.552Z,41.44
2023-05-15T21:11:02.352Z,41.20
2023-05-15T21:13:29.471Z,41.27
2023-05-15T21:15:56.308Z,41.50
2023-05-15T21:18:23.867Z,41.41
2023-05-15T21:20:50.865Z,41.17
2023-05-15T21:23:18.326Z,41.20
2023-05-15T21:25:45.207Z,41.25
2023-05-15T21:28:12.356Z,41.24
2023-05-15T21:30:39.287Z,41.15
2023-05-15T21:33:06.411Z,41.31
2023-05-15T21:35:33.184Z,41.15
2023-05-15T21:38:00.427Z,41.46
2023-05-15T21:40:27.560Z,41.35
2023-05-15T21:42:54.873Z,41.23
2023-05-15T21:45:21.738Z,41.58
2023-05-15T21:47:48.907Z,40.95
2023-05-15T21:50:15.884Z,41.49
2023-05-15T21:52:42.976Z,41.24
2023-05-15T21:55:09.967Z,41.29
2023-05-15T21:57:37.016Z,41.26
2023-05-15T22:00:06.830Z,41.20
2023-05-15T22:02:34.528Z,41.60
2023-05-15T22:05:01.676Z,41.46
2023-05-15T22:07:28.750Z,41.93
2023-05-15T22:09:55.612Z,41.11
2023-05-15T22:12:22.881Z,41.59
2023-05-15T22:14:58.381Z,41.55
2023-05-15T22:17:30.418Z,41.52
2023-05-15T22:20:07.204Z,41.59
2023-05-15T22:22:35.653Z,41.76
2023-05-15T22:25:02.548Z,41.63
2023-05-15T22:27:29.614Z,41.72
2023-05-15T22:29:56.487Z,41.83
2023-05-15T22:32:23.811Z,41.70
2023-05-15T22:34:50.617Z,42.13
2023-05-15T22:37:17.734Z,41.70
2023-05-15T22:39:44.590Z,41.76
2023-05-15T22:42:11.653Z,41.94
2023-05-15T22:44:38.424Z,41.82
2023-05-15T22:47:05.733Z,41.78
2023-05-15T22:49:32.480Z,41.63
2023-05-15T22:51:59.584Z,41.60
2023-05-15T22:54:26.410Z,41.83
2023-05-15T22:56:53.672Z,41.62
2023-05-15T22:59:20.939Z,41.87
2023-05-15T23:01:49.202Z,41.84
2023-05-15T23:04:16.961Z,41.78
2023-05-15T23:06:44.263Z,41.45
2023-05-15T23:09:11.107Z,41.81
2023-05-15T23:11:38.133Z,41.87
2023-05-15T23:14:04.905Z,41.72
2023-05-15T23:16:31.994Z,41.85
2023-05-15T23:18:58.835Z,41.49
2023-05-15T23:21:26.085Z,41.95
2023-05-15T23:23:52.883Z,41.73
2023-05-15T23:26:19.990Z,41.74
2023-05-15T23:28:47.122Z,41.46
2023-05-15T23:31:14.383Z,41.79
2023-05-15T23:33:41.495Z,41.58
2023-05-15T23:36:08.858Z,41.94
2023-05-15T23:38:35.670Z,41.56
2023-05-15T23:41:02.730Z,41.50
2023-05-15T23:43:29.713Z,41.89
2023-05-15T23:45:56.848Z,41.54
2023-05-15T23:48:23.709Z,41.69
2023-05-15T23:50:52.337Z,41.57
2023-05-15T23:53:19.270Z,41.51
2023-05-15T23:55:46.351Z,41.65
2023-05-15T23:58:13.110Z,41.42
